sensor_id;sensor_type;location;lat;lon;timestamp;P1;durP1;ratioP1;P2;durP2;ratioP2
37445;SDS011;23307;51.136;14.942;2023-12-07T00:01:42;18.17;;;13.47;;
37445;SDS011;23307;51.136;14.942;2023-12-07T00:04:08;18.23;;;14.17;;
37445;SDS011;23307;51.136;14.942;2023-12-07T00:06:33;16.47;;;13.17;;
37445;SDS011;23307;51.136;14.942;2023-12-07T00:08:59;18.47;;;13.17;;
37445;SDS011;23307;51.136;14.942;2023-12-07T00:11:26;16.57;;;12.73;;
37445;SDS011;23307;51.136;14.942;2023-12-07T00:13:51;16.73;;;12.43;;
37445;SDS011;23307;51.136;14.942;2023-12-07T00:16:17;14.50;;;11.63;;
37445;SDS011;23307;51.136;14.942;2023-12-07T00:18:42;13.30;;;11.50;;
37445;SDS011;23307;51.136;14.942;2023-12-07T00:21:08;12.93;;;11.07;;
37445;SDS011;23307;51.136;14.942;2023-12-07T00:23:34;11.20;;;9.67;;
37445;SDS011;23307;51.136;14.942;2023-12-07T00:25:59;12.07;;;10.77;;
37445;SDS011;23307;51.136;14.942;2023-12-07T00:28:25;12.77;;;10.83;;
37445;SDS011;23307;51.136;14.942;2023-12-07T00:30:51;10.47;;;9.03;;
37445;SDS011;23307;51.136;14.942;2023-12-07T00:33:17;11.60;;;10.23;;
37445;SDS011;23307;51.136;14.942;2023-12-07T00:35:42;11.83;;;9.73;;
37445;SDS011;23307;51.136;14.942;2023-12-07T00:38:08;12.60;;;11.07;;
37445;SDS011;23307;51.136;14.942;2023-12-07T00:40:34;11.13;;;10.03;;
37445;SDS011;23307;51.136;14.942;2023-12-07T00:43:02;12.43;;;10.33;;
37445;SDS011;23307;51.136;14.942;2023-12-07T00:45:28;12.27;;;10.97;;
37445;SDS011;23307;51.136;14.942;2023-12-07T00:47:53;12.30;;;11.00;;
37445;SDS011;23307;51.136;14.942;2023-12-07T00:50:19;11.60;;;10.33;;
37445;SDS011;23307;51.136;14.942;2023-12-07T00:52:44;12.17;;;10.87;;
37445;SDS011;23307;51.136;14.942;2023-12-07T00:55:10;12.13;;;10.67;;
37445;SDS011;23307;51.136;14.942;2023-12-07T00:57:35;12.50;;;11.03;;
37445;SDS011;23307;51.136;14.942;2023-12-07T01:00:01;12.80;;;11.23;;
37445;SDS011;23307;51.136;14.942;2023-12-07T01:02:27;12.53;;;11.23;;
37445;SDS011;23307;51.136;14.942;2023-12-07T01:04:52;12.90;;;11.57;;
37445;SDS011;23307;51.136;14.942;2023-12-07T01:07:18;13.47;;;12.07;;
37445;SDS011;23307;51.136;14.942;2023-12-07T01:09:43;14.10;;;11.50;;
37445;SDS011;23307;51.136;14.942;2023-12-07T01:12:09;13.30;;;11.77;;
37445;SDS011;23307;51.136;14.942;2023-12-07T01:14:34;13.37;;;11.87;;
37445;SDS011;23307;51.136;14.942;2023-12-07T01:17:00;13.60;;;11.73;;
37445;SDS011;23307;51.136;14.942;2023-12-07T01:19:25;12.90;;;11.60;;
37445;SDS011;23307;51.136;14.942;2023-12-07T01:21:51;13.53;;;12.10;;
37445;SDS011;23307;51.136;14.942;2023-12-07T01:24:16;12.73;;;11.10;;
37445;SDS011;23307;51.136;14.942;2023-12-07T01:26:42;13.23;;;11.57;;
37445;SDS011;23307;51.136;14.942;2023-12-07T01:29:08;13.27;;;11.87;;
37445;SDS011;23307;51.136;14.942;2023-12-07T01:31:33;13.13;;;11.23;;
37445;SDS011;23307;51.136;14.942;2023-12-07T01:33:59;13.33;;;11.20;;
37445;SDS011;23307;51.136;14.942;2023-12-07T01:36:24;13.27;;;11.33;;
37445;SDS011;23307;51.136;14.942;2023-12-07T01:38:50;12.70;;;11.20;;
37445;SDS011;23307;51.136;14.942;2023-12-07T01:41:15;12.93;;;10.83;;
37445;SDS011;23307;51.136;14.942;2023-12-07T01:43:44;12.20;;;11.00;;
37445;SDS011;23307;51.136;14.942;2023-12-07T01:46:11;12.47;;;11.17;;
37445;SDS011;23307;51.136;14.942;2023-12-07T01:48:37;13.00;;;11.60;;
37445;SDS011;23307;51.136;14.942;2023-12-07T01:51:02;12.60;;;11.30;;
37445;SDS011;23307;51.136;14.942;2023-12-07T01:53:28;12.13;;;10.73;;
37445;SDS011;23307;51.136;14.942;2023-12-07T01:55:54;13.13;;;11.57;;
37445;SDS011;23307;51.136;14.942;2023-12-07T01:58:20;13.47;;;12.03;;
37445;SDS011;23307;51.136;14.942;2023-12-07T02:00:46;12.40;;;11.10;;
37445;SDS011;23307;51.136;14.942;2023-12-07T02:03:13;13.47;;;12.07;;
37445;SDS011;23307;51.136;14.942;2023-12-07T02:05:42;12.43;;;11.00;;
37445;SDS011;23307;51.136;14.942;2023-12-07T02:08:10;13.47;;;12.03;;
37445;SDS011;23307;51.136;14.942;2023-12-07T02:10:36;12.87;;;11.57;;
37445;SDS011;23307;51.136;14.942;2023-12-07T02:13:02;13.00;;;11.63;;
37445;SDS011;23307;51.136;14.942;2023-12-07T02:15:28;13.57;;;12.17;;
37445;SDS011;23307;51.136;14.942;2023-12-07T02:18:10;13.27;;;11.87;;
37445;SDS011;23307;51.136;14.942;2023-12-07T02:20:55;13.20;;;11.80;;
37445;SDS011;23307;51.136;14.942;2023-12-07T02:23:28;12.50;;;11.20;;
37445;SDS011;23307;51.136;14.942;2023-12-07T02:25:56;13.33;;;11.93;;
37445;SDS011;23307;51.136;14.942;2023-12-07T02:28:28;11.33;;;10.10;;
37445;SDS011;23307;51.136;14.942;2023-12-07T02:30:54;12.10;;;10.90;;
37445;SDS011;23307;51.136;14.942;2023-12-07T02:33:19;12.30;;;11.00;;
37445;SDS011;23307;51.136;14.942;2023-12-07T02:35:45;11.90;;;10.60;;
37445;SDS011;23307;51.136;14.942;2023-12-07T02:38:10;11.80;;;10.60;;
37445;SDS011;23307;51.136;14.942;2023-12-07T02:40:37;11.43;;;10.23;;
37445;SDS011;23307;51.136;14.942;2023-12-07T02:43:03;12.00;;;10.70;;
37445;SDS011;23307;51.136;14.942;2023-12-07T02:45:29;10.80;;;9.70;;
37445;SDS011;23307;51.136;14.942;2023-12-07T02:47:55;11.07;;;9.90;;
37445;SDS011;23307;51.136;14.942;2023-12-07T02:50:22;10.40;;;9.40;;
37445;SDS011;23307;51.136;14.942;2023-12-07T02:52:47;10.67;;;9.60;;
37445;SDS011;23307;51.136;14.942;2023-12-07T02:55:13;10.97;;;9.80;;
37445;SDS011;23307;51.136;14.942;2023-12-07T02:57:38;11.10;;;9.70;;
37445;SDS011;23307;51.136;14.942;2023-12-07T03:00:04;11.77;;;10.57;;
37445;SDS011;23307;51.136;14.942;2023-12-07T03:02:32;11.63;;;10.43;;
37445;SDS011;23307;51.136;14.942;2023-12-07T03:05:01;10.53;;;9.47;;
37445;SDS011;23307;51.136;14.942;2023-12-07T03:07:26;9.40;;;8.50;;
37445;SDS011;23307;51.136;14.942;2023-12-07T03:09:52;9.40;;;8.40;;
37445;SDS011;23307;51.136;14.942;2023-12-07T03:12:17;10.67;;;9.57;;
37445;SDS011;23307;51.136;14.942;2023-12-07T03:14:43;10.60;;;9.50;;
37445;SDS011;23307;51.136;14.942;2023-12-07T03:17:08;10.90;;;9.80;;
37445;SDS011;23307;51.136;14.942;2023-12-07T03:19:37;11.10;;;10.00;;
37445;SDS011;23307;51.136;14.942;2023-12-07T03:22:03;10.83;;;9.60;;
37445;SDS011;23307;51.136;14.942;2023-12-07T03:24:31;10.63;;;9.57;;
37445;SDS011;23307;51.136;14.942;2023-12-07T03:26:57;11.20;;;10.00;;
37445;SDS011;23307;51.136;14.942;2023-12-07T03:29:22;10.73;;;9.63;;
37445;SDS011;23307;51.136;14.942;2023-12-07T03:31:47;9.60;;;8.60;;
37445;SDS011;23307;51.136;14.942;2023-12-07T03:34:13;9.33;;;8.43;;
37445;SDS011;23307;51.136;14.942;2023-12-07T03:36:40;10.43;;;9.43;;
37445;SDS011;23307;51.136;14.942;2023-12-07T03:39:07;10.13;;;9.13;;
37445;SDS011;23307;51.136;14.942;2023-12-07T03:41:33;10.00;;;9.00;;
37445;SDS011;23307;51.136;14.942;2023-12-07T03:43:58;9.60;;;8.60;;
37445;SDS011;23307;51.136;14.942;2023-12-07T03:46:24;11.07;;;9.87;;
37445;SDS011;23307;51.136;14.942;2023-12-07T03:48:49;10.30;;;9.27;;
37445;SDS011;23307;51.136;14.942;2023-12-07T03:51:15;10.67;;;9.57;;
37445;SDS011;23307;51.136;14.942;2023-12-07T03:53:41;10.90;;;9.80;;
37445;SDS011;23307;51.136;14.942;2023-12-07T03:56:07;11.03;;;9.93;;
37445;SDS011;23307;51.136;14.942;2023-12-07T03:58:33;11.53;;;10.37;;
37445;SDS011;23307;51.136;14.942;2023-12-07T04:00:59;12.17;;;10.97;;
37445;SDS011;23307;51.136;14.942;2023-12-07T04:03:24;11.50;;;10.30;;
37445;SDS011;23307;51.136;14.942;2023-12-07T04:05:50;11.73;;;10.53;;
37445;SDS011;23307;51.136;14.942;2023-12-07T04:08:15;11.93;;;10.70;;
37445;SDS011;23307;51.136;14.942;2023-12-07T04:10:41;11.00;;;9.90;;
37445;SDS011;23307;51.136;14.942;2023-12-07T04:13:06;12.13;;;10.83;;
37445;SDS011;23307;51.136;14.942;2023-12-07T04:15:32;12.20;;;10.90;;
37445;SDS011;23307;51.136;14.942;2023-12-07T04:17:57;10.90;;;9.80;;
37445;SDS011;23307;51.136;14.942;2023-12-07T04:20:23;11.77;;;10.67;;
37445;SDS011;23307;51.136;14.942;2023-12-07T04:22:48;11.13;;;9.93;;
37445;SDS011;23307;51.136;14.942;2023-12-07T04:25:14;11.30;;;10.20;;
37445;SDS011;23307;51.136;14.942;2023-12-07T04:27:39;11.97;;;10.77;;
37445;SDS011;23307;51.136;14.942;2023-12-07T04:30:05;10.67;;;9.57;;
37445;SDS011;23307;51.136;14.942;2023-12-07T04:32:31;10.87;;;9.77;;
37445;SDS011;23307;51.136;14.942;2023-12-07T04:34:56;11.50;;;10.30;;
37445;SDS011;23307;51.136;14.942;2023-12-07T04:37:22;12.60;;;10.47;;
37445;SDS011;23307;51.136;14.942;2023-12-07T04:39:48;11.53;;;10.43;;
37445;SDS011;23307;51.136;14.942;2023-12-07T04:42:14;10.57;;;9.47;;
37445;SDS011;23307;51.136;14.942;2023-12-07T04:44:39;11.03;;;9.90;;
37445;SDS011;23307;51.136;14.942;2023-12-07T04:47:04;13.43;;;10.73;;
37445;SDS011;23307;51.136;14.942;2023-12-07T04:49:30;10.67;;;9.57;;
37445;SDS011;23307;51.136;14.942;2023-12-07T04:51:55;10.93;;;9.70;;
37445;SDS011;23307;51.136;14.942;2023-12-07T04:54:21;11.37;;;9.43;;
37445;SDS011;23307;51.136;14.942;2023-12-07T04:56:46;10.17;;;9.07;;
37445;SDS011;23307;51.136;14.942;2023-12-07T04:59:12;10.33;;;9.27;;
37445;SDS011;23307;51.136;14.942;2023-12-07T05:01:38;10.40;;;9.30;;
37445;SDS011;23307;51.136;14.942;2023-12-07T05:04:04;9.43;;;8.53;;
37445;SDS011;23307;51.136;14.942;2023-12-07T05:06:30;9.83;;;8.80;;
37445;SDS011;23307;51.136;14.942;2023-12-07T05:08:56;11.47;;;9.77;;
37445;SDS011;23307;51.136;14.942;2023-12-07T05:11:22;10.63;;;9.53;;
37445;SDS011;23307;51.136;14.942;2023-12-07T05:13:47;10.40;;;9.37;;
37445;SDS011;23307;51.136;14.942;2023-12-07T05:16:13;9.47;;;8.57;;
37445;SDS011;23307;51.136;14.942;2023-12-07T05:18:39;12.37;;;10.93;;
37445;SDS011;23307;51.136;14.942;2023-12-07T05:21:05;9.67;;;8.77;;
37445;SDS011;23307;51.136;14.942;2023-12-07T05:23:31;9.93;;;8.93;;
37445;SDS011;23307;51.136;14.942;2023-12-07T05:25:56;9.10;;;8.23;;
37445;SDS011;23307;51.136;14.942;2023-12-07T05:28:22;10.37;;;8.77;;
37445;SDS011;23307;51.136;14.942;2023-12-07T05:30:47;8.30;;;7.50;;
37445;SDS011;23307;51.136;14.942;2023-12-07T05:33:13;9.53;;;8.53;;
37445;SDS011;23307;51.136;14.942;2023-12-07T05:35:38;9.77;;;8.73;;
37445;SDS011;23307;51.136;14.942;2023-12-07T05:38:04;10.23;;;9.20;;
37445;SDS011;23307;51.136;14.942;2023-12-07T05:40:30;9.60;;;8.60;;
37445;SDS011;23307;51.136;14.942;2023-12-07T05:42:55;9.73;;;8.73;;
37445;SDS011;23307;51.136;14.942;2023-12-07T05:45:21;11.07;;;9.30;;
37445;SDS011;23307;51.136;14.942;2023-12-07T05:47:47;25.33;;;16.90;;
37445;SDS011;23307;51.136;14.942;2023-12-07T05:50:12;11.10;;;10.00;;
37445;SDS011;23307;51.136;14.942;2023-12-07T05:52:38;11.03;;;9.47;;
37445;SDS011;23307;51.136;14.942;2023-12-07T05:55:04;10.83;;;9.70;;
37445;SDS011;23307;51.136;14.942;2023-12-07T05:57:30;11.43;;;9.37;;
37445;SDS011;23307;51.136;14.942;2023-12-07T05:59:56;11.37;;;10.17;;
37445;SDS011;23307;51.136;14.942;2023-12-07T06:02:21;13.83;;;11.30;;
37445;SDS011;23307;51.136;14.942;2023-12-07T06:04:47;13.77;;;10.87;;
37445;SDS011;23307;51.136;14.942;2023-12-07T06:07:12;12.37;;;11.07;;
37445;SDS011;23307;51.136;14.942;2023-12-07T06:09:38;12.60;;;10.80;;
37445;SDS011;23307;51.136;14.942;2023-12-07T06:12:03;12.43;;;11.13;;
37445;SDS011;23307;51.136;14.942;2023-12-07T06:14:29;14.00;;;12.43;;
37445;SDS011;23307;51.136;14.942;2023-12-07T06:16:54;12.37;;;11.07;;
37445;SDS011;23307;51.136;14.942;2023-12-07T06:19:20;12.13;;;10.63;;
37445;SDS011;23307;51.136;14.942;2023-12-07T06:21:46;14.07;;;11.30;;
37445;SDS011;23307;51.136;14.942;2023-12-07T06:24:11;11.97;;;10.70;;
37445;SDS011;23307;51.136;14.942;2023-12-07T06:26:39;13.73;;;11.30;;
37445;SDS011;23307;51.136;14.942;2023-12-07T06:29:04;16.37;;;12.53;;
37445;SDS011;23307;51.136;14.942;2023-12-07T06:31:32;14.57;;;13.07;;
37445;SDS011;23307;51.136;14.942;2023-12-07T06:33:58;14.30;;;12.80;;
37445;SDS011;23307;51.136;14.942;2023-12-07T06:42:59;15.00;;;12.37;;
37445;SDS011;23307;51.136;14.942;2023-12-07T06:45:24;13.50;;;12.10;;
37445;SDS011;23307;51.136;14.942;2023-12-07T06:47:50;12.10;;;10.80;;
37445;SDS011;23307;51.136;14.942;2023-12-07T06:50:16;15.90;;;13.17;;
37445;SDS011;23307;51.136;14.942;2023-12-07T06:52:42;16.27;;;12.63;;
37445;SDS011;23307;51.136;14.942;2023-12-07T06:55:07;25.33;;;20.13;;
37445;SDS011;23307;51.136;14.942;2023-12-07T06:57:35;15.33;;;13.33;;
37445;SDS011;23307;51.136;14.942;2023-12-07T07:00:01;15.20;;;13.33;;
37445;SDS011;23307;51.136;14.942;2023-12-07T07:02:30;15.27;;;12.63;;
37445;SDS011;23307;51.136;14.942;2023-12-07T07:04:56;14.67;;;12.73;;
37445;SDS011;23307;51.136;14.942;2023-12-07T07:07:21;13.67;;;12.27;;
37445;SDS011;23307;51.136;14.942;2023-12-07T07:09:47;13.23;;;11.83;;
37445;SDS011;23307;51.136;14.942;2023-12-07T07:12:12;13.77;;;12.30;;
37445;SDS011;23307;51.136;14.942;2023-12-07T07:14:38;15.03;;;12.73;;
37445;SDS011;23307;51.136;14.942;2023-12-07T07:17:04;14.63;;;12.93;;
37445;SDS011;23307;51.136;14.942;2023-12-07T07:19:31;17.67;;;14.50;;
37445;SDS011;23307;51.136;14.942;2023-12-07T07:21:56;18.27;;;16.00;;
37445;SDS011;23307;51.136;14.942;2023-12-07T07:24:22;16.93;;;14.63;;
37445;SDS011;23307;51.136;14.942;2023-12-07T07:26:47;18.30;;;13.90;;
37445;SDS011;23307;51.136;14.942;2023-12-07T07:29:13;16.10;;;14.27;;
37445;SDS011;23307;51.136;14.942;2023-12-07T07:31:38;16.80;;;13.90;;
37445;SDS011;23307;51.136;14.942;2023-12-07T07:34:04;16.87;;;13.30;;
37445;SDS011;23307;51.136;14.942;2023-12-07T07:36:30;15.87;;;13.40;;
37445;SDS011;23307;51.136;14.942;2023-12-07T07:38:57;17.10;;;13.53;;
37445;SDS011;23307;51.136;14.942;2023-12-07T07:41:22;14.90;;;12.70;;
37445;SDS011;23307;51.136;14.942;2023-12-07T07:43:48;18.67;;;13.50;;
37445;SDS011;23307;51.136;14.942;2023-12-07T07:46:14;17.77;;;14.50;;
37445;SDS011;23307;51.136;14.942;2023-12-07T07:48:39;15.90;;;13.87;;
37445;SDS011;23307;51.136;14.942;2023-12-07T07:51:05;20.17;;;14.70;;
37445;SDS011;23307;51.136;14.942;2023-12-07T07:53:30;18.23;;;14.60;;
37445;SDS011;23307;51.136;14.942;2023-12-07T07:55:56;17.13;;;14.47;;
37445;SDS011;23307;51.136;14.942;2023-12-07T07:58:21;22.10;;;14.10;;
37445;SDS011;23307;51.136;14.942;2023-12-07T08:00:47;19.70;;;14.20;;
37445;SDS011;23307;51.136;14.942;2023-12-07T08:03:13;18.93;;;14.77;;
37445;SDS011;23307;51.136;14.942;2023-12-07T08:05:38;18.00;;;14.13;;
37445;SDS011;23307;51.136;14.942;2023-12-07T08:08:04;18.50;;;14.13;;
37445;SDS011;23307;51.136;14.942;2023-12-07T08:10:29;19.13;;;14.50;;
37445;SDS011;23307;51.136;14.942;2023-12-07T08:12:55;18.33;;;15.40;;
37445;SDS011;23307;51.136;14.942;2023-12-07T08:15:20;18.20;;;15.50;;
37445;SDS011;23307;51.136;14.942;2023-12-07T08:17:46;18.87;;;14.93;;
37445;SDS011;23307;51.136;14.942;2023-12-07T08:20:12;19.83;;;15.50;;
37445;SDS011;23307;51.136;14.942;2023-12-07T08:22:39;18.57;;;15.47;;
37445;SDS011;23307;51.136;14.942;2023-12-07T08:25:09;19.60;;;15.93;;
37445;SDS011;23307;51.136;14.942;2023-12-07T08:27:39;20.60;;;16.03;;
37445;SDS011;23307;51.136;14.942;2023-12-07T08:30:05;20.20;;;15.97;;
37445;SDS011;23307;51.136;14.942;2023-12-07T08:32:31;20.33;;;15.60;;
37445;SDS011;23307;51.136;14.942;2023-12-07T08:34:57;21.33;;;15.93;;
37445;SDS011;23307;51.136;14.942;2023-12-07T08:37:22;18.13;;;15.50;;
37445;SDS011;23307;51.136;14.942;2023-12-07T08:39:48;18.03;;;15.10;;
37445;SDS011;23307;51.136;14.942;2023-12-07T08:42:14;19.87;;;15.57;;
37445;SDS011;23307;51.136;14.942;2023-12-07T08:44:39;21.10;;;16.30;;
37445;SDS011;23307;51.136;14.942;2023-12-07T08:47:06;20.70;;;15.17;;
37445;SDS011;23307;51.136;14.942;2023-12-07T08:49:31;19.43;;;15.57;;
37445;SDS011;23307;51.136;14.942;2023-12-07T08:51:57;19.93;;;15.37;;
37445;SDS011;23307;51.136;14.942;2023-12-07T08:54:22;19.67;;;16.50;;
37445;SDS011;23307;51.136;14.942;2023-12-07T08:56:48;20.57;;;15.03;;
37445;SDS011;23307;51.136;14.942;2023-12-07T08:59:14;17.73;;;14.87;;
37445;SDS011;23307;51.136;14.942;2023-12-07T09:01:39;18.00;;;14.20;;
37445;SDS011;23307;51.136;14.942;2023-12-07T09:04:05;17.50;;;13.80;;
37445;SDS011;23307;51.136;14.942;2023-12-07T09:06:30;19.43;;;14.00;;
37445;SDS011;23307;51.136;14.942;2023-12-07T09:08:56;17.13;;;14.27;;
37445;SDS011;23307;51.136;14.942;2023-12-07T09:11:22;18.17;;;14.10;;
37445;SDS011;23307;51.136;14.942;2023-12-07T09:13:47;19.43;;;15.07;;
37445;SDS011;23307;51.136;14.942;2023-12-07T09:16:13;17.90;;;13.83;;
37445;SDS011;23307;51.136;14.942;2023-12-07T09:18:41;16.77;;;13.57;;
37445;SDS011;23307;51.136;14.942;2023-12-07T09:21:07;16.90;;;13.60;;
37445;SDS011;23307;51.136;14.942;2023-12-07T09:23:33;18.63;;;13.93;;
37445;SDS011;23307;51.136;14.942;2023-12-07T09:26:00;16.83;;;14.17;;
37445;SDS011;23307;51.136;14.942;2023-12-07T09:28:25;15.87;;;13.37;;
37445;SDS011;23307;51.136;14.942;2023-12-07T09:30:51;16.73;;;13.67;;
37445;SDS011;23307;51.136;14.942;2023-12-07T09:33:16;19.70;;;14.97;;
37445;SDS011;23307;51.136;14.942;2023-12-07T09:35:42;17.20;;;13.90;;
37445;SDS011;23307;51.136;14.942;2023-12-07T09:38:08;18.33;;;15.47;;
37445;SDS011;23307;51.136;14.942;2023-12-07T09:40:34;18.13;;;14.93;;
37445;SDS011;23307;51.136;14.942;2023-12-07T09:43:00;17.53;;;14.53;;
37445;SDS011;23307;51.136;14.942;2023-12-07T09:45:26;16.87;;;14.07;;
37445;SDS011;23307;51.136;14.942;2023-12-07T09:47:52;19.37;;;14.57;;
37445;SDS011;23307;51.136;14.942;2023-12-07T09:50:19;17.83;;;14.30;;
37445;SDS011;23307;51.136;14.942;2023-12-07T09:52:49;16.23;;;13.83;;
37445;SDS011;23307;51.136;14.942;2023-12-07T09:55:20;15.77;;;13.17;;
37445;SDS011;23307;51.136;14.942;2023-12-07T09:57:47;15.87;;;13.67;;
37445;SDS011;23307;51.136;14.942;2023-12-07T10:00:13;18.23;;;13.90;;
37445;SDS011;23307;51.136;14.942;2023-12-07T10:02:39;19.43;;;14.77;;
37445;SDS011;23307;51.136;14.942;2023-12-07T10:05:11;18.43;;;15.07;;
37445;SDS011;23307;51.136;14.942;2023-12-07T10:07:42;19.17;;;14.63;;
37445;SDS011;23307;51.136;14.942;2023-12-07T10:10:13;17.60;;;14.00;;
37445;SDS011;23307;51.136;14.942;2023-12-07T10:12:44;17.67;;;14.33;;
37445;SDS011;23307;51.136;14.942;2023-12-07T10:15:11;21.93;;;15.37;;
37445;SDS011;23307;51.136;14.942;2023-12-07T10:17:54;16.93;;;14.07;;
37445;SDS011;23307;51.136;14.942;2023-12-07T10:20:22;16.93;;;14.27;;
37445;SDS011;23307;51.136;14.942;2023-12-07T10:22:49;19.90;;;15.90;;
37445;SDS011;23307;51.136;14.942;2023-12-07T10:25:27;21.30;;;15.87;;
37445;SDS011;23307;51.136;14.942;2023-12-07T10:27:54;18.63;;;15.03;;
37445;SDS011;23307;51.136;14.942;2023-12-07T10:30:20;19.00;;;14.90;;
37445;SDS011;23307;51.136;14.942;2023-12-07T10:32:50;18.43;;;14.50;;
37445;SDS011;23307;51.136;14.942;2023-12-07T10:35:16;24.60;;;16.10;;
37445;SDS011;23307;51.136;14.942;2023-12-07T10:37:42;19.57;;;15.80;;
37445;SDS011;23307;51.136;14.942;2023-12-07T10:40:08;20.07;;;16.63;;
37445;SDS011;23307;51.136;14.942;2023-12-07T10:42:34;34.20;;;24.50;;
37445;SDS011;23307;51.136;14.942;2023-12-07T10:45:03;25.23;;;18.50;;
37445;SDS011;23307;51.136;14.942;2023-12-07T10:47:30;24.53;;;18.93;;
37445;SDS011;23307;51.136;14.942;2023-12-07T10:49:57;23.60;;;17.70;;
37445;SDS011;23307;51.136;14.942;2023-12-07T10:52:25;24.17;;;19.70;;
37445;SDS011;23307;51.136;14.942;2023-12-07T10:55:01;23.90;;;18.20;;
37445;SDS011;23307;51.136;14.942;2023-12-07T10:57:29;28.57;;;22.30;;
37445;SDS011;23307;51.136;14.942;2023-12-07T10:59:57;33.07;;;25.97;;
37445;SDS011;23307;51.136;14.942;2023-12-07T11:02:26;30.47;;;22.73;;
37445;SDS011;23307;51.136;14.942;2023-12-07T11:04:54;22.63;;;18.10;;
37445;SDS011;23307;51.136;14.942;2023-12-07T11:07:21;40.53;;;30.23;;
37445;SDS011;23307;51.136;14.942;2023-12-07T11:09:51;31.57;;;24.97;;
37445;SDS011;23307;51.136;14.942;2023-12-07T11:12:28;25.70;;;18.77;;
37445;SDS011;23307;51.136;14.942;2023-12-07T11:15:00;21.27;;;16.80;;
37445;SDS011;23307;51.136;14.942;2023-12-07T11:17:26;22.80;;;17.37;;
37445;SDS011;23307;51.136;14.942;2023-12-07T11:19:52;21.40;;;17.93;;
37445;SDS011;23307;51.136;14.942;2023-12-07T11:22:17;24.63;;;17.97;;
37445;SDS011;23307;51.136;14.942;2023-12-07T11:24:57;23.00;;;17.33;;
37445;SDS011;23307;51.136;14.942;2023-12-07T11:27:28;25.83;;;18.67;;
37445;SDS011;23307;51.136;14.942;2023-12-07T11:29:57;24.63;;;18.73;;
37445;SDS011;23307;51.136;14.942;2023-12-07T11:32:25;22.43;;;17.87;;
37445;SDS011;23307;51.136;14.942;2023-12-07T11:34:52;23.63;;;18.67;;
37445;SDS011;23307;51.136;14.942;2023-12-07T11:37:17;22.60;;;17.90;;
37445;SDS011;23307;51.136;14.942;2023-12-07T11:39:44;23.03;;;18.77;;
37445;SDS011;23307;51.136;14.942;2023-12-07T11:42:18;24.53;;;18.80;;
37445;SDS011;23307;51.136;14.942;2023-12-07T11:44:47;24.53;;;17.97;;
37445;SDS011;23307;51.136;14.942;2023-12-07T11:47:18;26.03;;;19.13;;
37445;SDS011;23307;51.136;14.942;2023-12-07T11:49:45;22.40;;;16.43;;
37445;SDS011;23307;51.136;14.942;2023-12-07T11:52:18;21.43;;;17.90;;
37445;SDS011;23307;51.136;14.942;2023-12-07T11:54:47;23.33;;;17.57;;
37445;SDS011;23307;51.136;14.942;2023-12-07T11:57:14;20.23;;;16.43;;
37445;SDS011;23307;51.136;14.942;2023-12-07T11:59:41;22.93;;;17.83;;
37445;SDS011;23307;51.136;14.942;2023-12-07T12:02:09;22.47;;;17.80;;
37445;SDS011;23307;51.136;14.942;2023-12-07T12:04:36;24.60;;;17.30;;
37445;SDS011;23307;51.136;14.942;2023-12-07T12:07:03;23.27;;;17.10;;
37445;SDS011;23307;51.136;14.942;2023-12-07T12:09:29;18.97;;;15.70;;
37445;SDS011;23307;51.136;14.942;2023-12-07T12:11:54;22.53;;;16.43;;
37445;SDS011;23307;51.136;14.942;2023-12-07T12:14:25;17.70;;;14.53;;
37445;SDS011;23307;51.136;14.942;2023-12-07T12:16:51;20.40;;;15.13;;
37445;SDS011;23307;51.136;14.942;2023-12-07T12:19:17;19.03;;;14.83;;
37445;SDS011;23307;51.136;14.942;2023-12-07T12:21:43;18.50;;;14.50;;
37445;SDS011;23307;51.136;14.942;2023-12-07T12:24:08;18.60;;;15.47;;
37445;SDS011;23307;51.136;14.942;2023-12-07T12:26:35;20.07;;;15.90;;
37445;SDS011;23307;51.136;14.942;2023-12-07T12:29:04;18.87;;;15.40;;
37445;SDS011;23307;51.136;14.942;2023-12-07T12:31:31;18.47;;;14.67;;
37445;SDS011;23307;51.136;14.942;2023-12-07T12:33:57;17.97;;;14.37;;
37445;SDS011;23307;51.136;14.942;2023-12-07T12:36:23;18.03;;;13.93;;
37445;SDS011;23307;51.136;14.942;2023-12-07T12:38:52;19.70;;;15.27;;
37445;SDS011;23307;51.136;14.942;2023-12-07T12:41:21;18.90;;;14.97;;
37445;SDS011;23307;51.136;14.942;2023-12-07T12:43:47;26.13;;;20.17;;
37445;SDS011;23307;51.136;14.942;2023-12-07T12:46:13;16.90;;;14.50;;
37445;SDS011;23307;51.136;14.942;2023-12-07T12:48:53;17.83;;;14.43;;
37445;SDS011;23307;51.136;14.942;2023-12-07T12:51:25;17.83;;;14.53;;
37445;SDS011;23307;51.136;14.942;2023-12-07T12:53:58;18.53;;;15.17;;
37445;SDS011;23307;51.136;14.942;2023-12-07T12:56:24;18.13;;;14.73;;
37445;SDS011;23307;51.136;14.942;2023-12-07T12:58:52;17.30;;;14.03;;
37445;SDS011;23307;51.136;14.942;2023-12-07T13:01:21;18.40;;;13.73;;
37445;SDS011;23307;51.136;14.942;2023-12-07T13:03:47;17.97;;;15.07;;
37445;SDS011;23307;51.136;14.942;2023-12-07T13:06:16;18.70;;;15.43;;
37445;SDS011;23307;51.136;14.942;2023-12-07T13:08:46;19.93;;;14.73;;
37445;SDS011;23307;51.136;14.942;2023-12-07T13:11:15;19.37;;;15.00;;
37445;SDS011;23307;51.136;14.942;2023-12-07T13:13:41;19.83;;;15.37;;
37445;SDS011;23307;51.136;14.942;2023-12-07T13:16:07;19.20;;;14.73;;
37445;SDS011;23307;51.136;14.942;2023-12-07T13:18:33;20.77;;;15.30;;
37445;SDS011;23307;51.136;14.942;2023-12-07T13:20:58;19.03;;;14.80;;
37445;SDS011;23307;51.136;14.942;2023-12-07T13:23:24;22.87;;;15.60;;
37445;SDS011;23307;51.136;14.942;2023-12-07T13:25:50;18.33;;;14.60;;
37445;SDS011;23307;51.136;14.942;2023-12-07T13:28:16;19.77;;;13.97;;
37445;SDS011;23307;51.136;14.942;2023-12-07T13:30:41;18.60;;;14.33;;
37445;SDS011;23307;51.136;14.942;2023-12-07T13:33:07;19.43;;;14.73;;
37445;SDS011;23307;51.136;14.942;2023-12-07T13:35:34;19.37;;;14.93;;
37445;SDS011;23307;51.136;14.942;2023-12-07T13:37:59;18.50;;;14.33;;
37445;SDS011;23307;51.136;14.942;2023-12-07T13:40:25;18.40;;;14.63;;
37445;SDS011;23307;51.136;14.942;2023-12-07T13:42:52;17.80;;;14.03;;
37445;SDS011;23307;51.136;14.942;2023-12-07T13:45:17;17.27;;;13.50;;
37445;SDS011;23307;51.136;14.942;2023-12-07T13:47:43;16.63;;;13.13;;
37445;SDS011;23307;51.136;14.942;2023-12-07T13:50:09;21.07;;;14.50;;
37445;SDS011;23307;51.136;14.942;2023-12-07T13:52:36;17.87;;;13.53;;
37445;SDS011;23307;51.136;14.942;2023-12-07T13:55:03;21.33;;;13.80;;
37445;SDS011;23307;51.136;14.942;2023-12-07T13:57:29;17.10;;;13.33;;
37445;SDS011;23307;51.136;14.942;2023-12-07T13:59:55;16.37;;;12.87;;
37445;SDS011;23307;51.136;14.942;2023-12-07T14:02:21;20.40;;;15.23;;
37445;SDS011;23307;51.136;14.942;2023-12-07T14:04:46;20.60;;;15.20;;
37445;SDS011;23307;51.136;14.942;2023-12-07T14:07:15;18.93;;;13.87;;
37445;SDS011;23307;51.136;14.942;2023-12-07T14:09:47;19.97;;;15.03;;
37445;SDS011;23307;51.136;14.942;2023-12-07T14:12:14;20.97;;;16.20;;
37445;SDS011;23307;51.136;14.942;2023-12-07T14:14:44;21.70;;;17.23;;